sensor_id;sensor_type;location;lat;lon;timestamp;temperature;humidity
33594;DHT22;19920;52.242;20.940;2023-02-18T00:00:25;8.20;99.90
33594;DHT22;19920;52.242;20.940;2023-02-18T00:02:51;8.10;99.90
33594;DHT22;19920;52.242;20.940;2023-02-18T00:05:17;8.10;99.90
33594;DHT22;19920;52.242;20.940;2023-02-18T00:07:42;8.00;99.90
33594;DHT22;19920;52.242;20.940;2023-02-18T00:10:12;8.00;99.90
33594;DHT22;19920;52.242;20.940;2023-02-18T00:12:38;8.00;99.90
33594;DHT22;19920;52.242;20.940;2023-02-18T00:15:04;7.90;99.90
33594;DHT22;19920;52.242;20.940;2023-02-18T00:17:31;7.90;99.90
33594;DHT22;19920;52.242;20.940;2023-02-18T00:19:57;7.90;99.90
33594;DHT22;19920;52.242;20.940;2023-02-18T00:22:23;7.90;99.90
33594;DHT22;19920;52.242;20.940;2023-02-18T00:24:49;7.90;99.90
33594;DHT22;19920;52.242;20.940;2023-02-18T00:27:15;7.90;99.90
33594;DHT22;19920;52.242;20.940;2023-02-18T00:29:41;7.90;99.90
33594;DHT22;19920;52.242;20.940;2023-02-18T00:32:06;7.80;99.90
33594;DHT22;19920;52.242;20.940;2023-02-18T00:34:32;7.80;99.90
33594;DHT22;19920;52.242;20.940;2023-02-18T00:36:58;7.70;99.90
33594;DHT22;19920;52.242;20.940;2023-02-18T00:39:23;7.70;99.90
33594;DHT22;19920;52.242;20.940;2023-02-18T00:41:49;7.70;99.90
33594;DHT22;19920;52.242;20.940;2023-02-18T00:44:15;7.70;99.90
33594;DHT22;19920;52.242;20.940;2023-02-18T00:46:40;7.70;99.90
33594;DHT22;19920;52.242;20.940;2023-02-18T00:49:06;7.70;99.90
33594;DHT22;19920;52.242;20.940;2023-02-18T00:51:32;7.70;99.90
33594;DHT22;19920;52.242;20.940;2023-02-18T00:53:58;7.80;99.90
33594;DHT22;19920;52.242;20.940;2023-02-18T00:56:24;7.70;99.90
33594;DHT22;19920;52.242;20.940;2023-02-18T00:58:50;7.70;99.90
33594;DHT22;19920;52.242;20.940;2023-02-18T01:01:17;7.70;99.90
33594;DHT22;19920;52.242;20.940;2023-02-18T01:03:43;7.70;99.90
33594;DHT22;19920;52.242;20.940;2023-02-18T01:06:10;7.70;99.90
33594;DHT22;19920;52.242;20.940;2023-02-18T01:08:38;7.60;99.90
33594;DHT22;19920;52.242;20.940;2023-02-18T01:11:04;7.70;99.90
33594;DHT22;19920;52.242;20.940;2023-02-18T01:13:30;7.70;99.90
33594;DHT22;19920;52.242;20.940;2023-02-18T01:15:56;7.60;99.90
33594;DHT22;19920;52.242;20.940;2023-02-18T01:18:24;7.70;99.90
33594;DHT22;19920;52.242;20.940;2023-02-18T01:20:49;7.60;99.90
33594;DHT22;19920;52.242;20.940;2023-02-18T01:23:15;7.50;99.90
33594;DHT22;19920;52.242;20.940;2023-02-18T01:25:41;7.50;99.90
33594;DHT22;19920;52.242;20.940;2023-02-18T01:28:08;7.40;99.90
33594;DHT22;19920;52.242;20.940;2023-02-18T01:30:34;7.40;99.90
33594;DHT22;19920;52.242;20.940;2023-02-18T01:33:00;7.50;99.90
33594;DHT22;19920;52.242;20.940;2023-02-18T01:35:25;7.50;99.90
33594;DHT22;19920;52.242;20.940;2023-02-18T01:37:51;7.50;99.90
33594;DHT22;19920;52.242;20.940;2023-02-18T01:40:23;7.50;99.90
33594;DHT22;19920;52.242;20.940;2023-02-18T01:42:49;7.50;99.90
33594;DHT22;19920;52.242;20.940;2023-02-18T01:50:26;7.40;99.90
33594;DHT22;19920;52.242;20.940;2023-02-18T01:52:52;7.40;99.90
33594;DHT22;19920;52.242;20.940;2023-02-18T01:55:17;7.40;99.90
33594;DHT22;19920;52.242;20.940;2023-02-18T01:57:43;7.40;99.90
33594;DHT22;19920;52.242;20.940;2023-02-18T02:00:15;7.50;99.90
33594;DHT22;19920;52.242;20.940;2023-02-18T02:02:45;7.40;99.90
33594;DHT22;19920;52.242;20.940;2023-02-18T02:05:12;7.40;99.90
33594;DHT22;19920;52.242;20.940;2023-02-18T02:07:39;7.40;99.90
33594;DHT22;19920;52.242;20.940;2023-02-18T02:10:06;7.40;99.90
33594;DHT22;19920;52.242;20.940;2023-02-18T02:12:55;7.40;99.90
33594;DHT22;19920;52.242;20.940;2023-02-18T02:15:46;7.30;99.90
33594;DHT22;19920;52.242;20.940;2023-02-18T02:18:38;7.20;99.90
33594;DHT22;19920;52.242;20.940;2023-02-18T02:27:12;7.10;99.90
33594;DHT22;19920;52.242;20.940;2023-02-18T02:30:12;7.00;99.90
33594;DHT22;19920;52.242;20.940;2023-02-18T02:33:28;7.00;99.90
33594;DHT22;19920;52.242;20.940;2023-02-18T02:47:13;6.90;99.90
33594;DHT22;19920;52.242;20.940;2023-02-18T02:49:48;6.80;99.90
33594;DHT22;19920;52.242;20.940;2023-02-18T02:52:31;6.80;99.90
33594;DHT22;19920;52.242;20.940;2023-02-18T02:54:57;6.80;99.90
33594;DHT22;19920;52.242;20.940;2023-02-18T02:59:52;6.80;99.90
33594;DHT22;19920;52.242;20.940;2023-02-18T03:08:35;6.70;99.90
33594;DHT22;19920;52.242;20.940;2023-02-18T03:19:00;6.60;99.90
33594;DHT22;19920;52.242;20.940;2023-02-18T03:24:14;6.60;99.90
33594;DHT22;19920;52.242;20.940;2023-02-18T03:26:44;6.60;99.90
33594;DHT22;19920;52.242;20.940;2023-02-18T03:29:13;6.60;99.90
33594;DHT22;19920;52.242;20.940;2023-02-18T03:31:42;6.50;99.90
33594;DHT22;19920;52.242;20.940;2023-02-18T03:34:16;6.60;99.90
33594;DHT22;19920;52.242;20.940;2023-02-18T03:36:44;6.60;99.90
33594;DHT22;19920;52.242;20.940;2023-02-18T03:39:15;6.60;99.90
33594;DHT22;19920;52.242;20.940;2023-02-18T03:41:42;6.60;99.90
33594;DHT22;19920;52.242;20.940;2023-02-18T03:44:09;6.50;99.90
33594;DHT22;19920;52.242;20.940;2023-02-18T03:46:37;6.60;99.90
33594;DHT22;19920;52.242;20.940;2023-02-18T03:49:03;6.50;99.90
33594;DHT22;19920;52.242;20.940;2023-02-18T03:51:29;6.60;99.90
33594;DHT22;19920;52.242;20.940;2023-02-18T03:53:55;6.50;99.90
33594;DHT22;19920;52.242;20.940;2023-02-18T03:56:21;6.50;99.90
33594;DHT22;19920;52.242;20.940;2023-02-18T03:58:46;6.50;99.90
33594;DHT22;19920;52.242;20.940;2023-02-18T04:01:12;6.50;99.90
33594;DHT22;19920;52.242;20.940;2023-02-18T04:03:38;6.40;99.90
33594;DHT22;19920;52.242;20.940;2023-02-18T04:06:04;6.40;99.90
33594;DHT22;19920;52.242;20.940;2023-02-18T04:08:30;6.40;99.90
33594;DHT22;19920;52.242;20.940;2023-02-18T04:10:55;6.40;99.90
33594;DHT22;19920;52.242;20.940;2023-02-18T04:13:21;6.40;99.90
33594;DHT22;19920;52.242;20.940;2023-02-18T04:15:50;6.40;99.90
33594;DHT22;19920;52.242;20.940;2023-02-18T04:18:16;6.40;99.90
33594;DHT22;19920;52.242;20.940;2023-02-18T04:20:42;6.40;99.90
33594;DHT22;19920;52.242;20.940;2023-02-18T04:23:08;6.30;99.90
33594;DHT22;19920;52.242;20.940;2023-02-18T04:25:34;6.30;99.90
33594;DHT22;19920;52.242;20.940;2023-02-18T04:27:59;6.30;99.90
33594;DHT22;19920;52.242;20.940;2023-02-18T04:30:25;6.30;99.90
33594;DHT22;19920;52.242;20.940;2023-02-18T04:32:51;6.30;99.90
33594;DHT22;19920;52.242;20.940;2023-02-18T04:35:17;6.30;99.90
33594;DHT22;19920;52.242;20.940;2023-02-18T04:37:43;6.30;99.90
33594;DHT22;19920;52.242;20.940;2023-02-18T04:40:09;6.20;99.90
33594;DHT22;19920;52.242;20.940;2023-02-18T04:42:35;6.30;99.90
33594;DHT22;19920;52.242;20.940;2023-02-18T04:45:00;6.30;99.90
33594;DHT22;19920;52.242;20.940;2023-02-18T04:47:26;6.20;99.90
33594;DHT22;19920;52.242;20.940;2023-02-18T04:49:52;6.20;99.90
33594;DHT22;19920;52.242;20.940;2023-02-18T04:52:18;6.20;99.90
33594;DHT22;19920;52.242;20.940;2023-02-18T04:54:44;6.20;99.90
33594;DHT22;19920;52.242;20.940;2023-02-18T04:57:10;6.20;99.90
33594;DHT22;19920;52.242;20.940;2023-02-18T04:59:35;6.20;99.90
33594;DHT22;19920;52.242;20.940;2023-02-18T05:02:01;6.20;99.90
33594;DHT22;19920;52.242;20.940;2023-02-18T05:04:27;6.10;99.90
33594;DHT22;19920;52.242;20.940;2023-02-18T05:06:53;6.10;99.90
33594;DHT22;19920;52.242;20.940;2023-02-18T05:09:18;6.10;99.90
33594;DHT22;19920;52.242;20.940;2023-02-18T05:11:44;6.10;99.90
33594;DHT22;19920;52.242;20.940;2023-02-18T05:14:10;6.10;99.90
33594;DHT22;19920;52.242;20.940;2023-02-18T05:16:35;6.00;99.90
33594;DHT22;19920;52.242;20.940;2023-02-18T05:19:01;6.00;99.90
33594;DHT22;19920;52.242;20.940;2023-02-18T05:21:27;6.10;99.90
33594;DHT22;19920;52.242;20.940;2023-02-18T05:23:52;6.10;99.90
33594;DHT22;19920;52.242;20.940;2023-02-18T05:26:18;6.00;99.90
33594;DHT22;19920;52.242;20.940;2023-02-18T05:28:44;6.00;99.90
33594;DHT22;19920;52.242;20.940;2023-02-18T05:31:09;6.00;99.90
33594;DHT22;19920;52.242;20.940;2023-02-18T05:33:35;6.00;99.90
33594;DHT22;19920;52.242;20.940;2023-02-18T05:36:00;5.90;99.90
33594;DHT22;19920;52.242;20.940;2023-02-18T05:38:26;6.00;99.90
33594;DHT22;19920;52.242;20.940;2023-02-18T05:40:52;5.90;99.90
33594;DHT22;19920;52.242;20.940;2023-02-18T05:43:17;6.00;99.90
33594;DHT22;19920;52.242;20.940;2023-02-18T05:45:43;5.90;99.90
33594;DHT22;19920;52.242;20.940;2023-02-18T05:48:08;5.90;99.90
33594;DHT22;19920;52.242;20.940;2023-02-18T05:50:34;5.90;99.90
33594;DHT22;19920;52.242;20.940;2023-02-18T05:53:00;6.00;99.90
33594;DHT22;19920;52.242;20.940;2023-02-18T05:55:25;6.00;99.90
33594;DHT22;19920;52.242;20.940;2023-02-18T05:57:51;5.90;99.90
33594;DHT22;19920;52.242;20.940;2023-02-18T06:00:18;5.90;99.90
33594;DHT22;19920;52.242;20.940;2023-02-18T06:02:43;5.90;99.90
33594;DHT22;19920;52.242;20.940;2023-02-18T06:05:09;5.90;99.90
33594;DHT22;19920;52.242;20.940;2023-02-18T06:07:35;6.00;99.90
33594;DHT22;19920;52.242;20.940;2023-02-18T06:10:01;6.00;99.90
33594;DHT22;19920;52.242;20.940;2023-02-18T06:12:27;6.00;99.90
33594;DHT22;19920;52.242;20.940;2023-02-18T06:14:53;6.00;99.90
33594;DHT22;19920;52.242;20.940;2023-02-18T06:17:18;6.00;99.90
33594;DHT22;19920;52.242;20.940;2023-02-18T06:19:44;6.10;99.90
33594;DHT22;19920;52.242;20.940;2023-02-18T06:22:10;6.10;99.90
33594;DHT22;19920;52.242;20.940;2023-02-18T06:24:36;6.10;99.90
33594;DHT22;19920;52.242;20.940;2023-02-18T06:27:02;6.00;99.90
33594;DHT22;19920;52.242;20.940;2023-02-18T06:29:28;6.00;99.90
33594;DHT22;19920;52.242;20.940;2023-02-18T06:31:58;6.10;99.90
33594;DHT22;19920;52.242;20.940;2023-02-18T06:34:25;6.00;99.90
33594;DHT22;19920;52.242;20.940;2023-02-18T06:36:51;6.00;99.90
33594;DHT22;19920;52.242;20.940;2023-02-18T06:39:16;6.10;99.90
33594;DHT22;19920;52.242;20.940;2023-02-18T06:41:42;6.10;99.90
33594;DHT22;19920;52.242;20.940;2023-02-18T06:44:08;6.00;99.90
33594;DHT22;19920;52.242;20.940;2023-02-18T06:46:33;6.00;99.90
33594;DHT22;19920;52.242;20.940;2023-02-18T06:48:59;6.10;99.90
33594;DHT22;19920;52.242;20.940;2023-02-18T06:51:25;6.10;99.90
33594;DHT22;19920;52.242;20.940;2023-02-18T06:53:50;6.10;99.90
33594;DHT22;19920;52.242;20.940;2023-02-18T06:56:16;6.10;99.90
33594;DHT22;19920;52.242;20.940;2023-02-18T06:58:42;6.00;99.90
33594;DHT22;19920;52.242;20.940;2023-02-18T07:01:07;6.10;99.90
33594;DHT22;19920;52.242;20.940;2023-02-18T07:03:33;6.10;99.90
33594;DHT22;19920;52.242;20.940;2023-02-18T07:05:59;6.10;99.90
33594;DHT22;19920;52.242;20.940;2023-02-18T07:08:25;6.10;99.90
33594;DHT22;19920;52.242;20.940;2023-02-18T07:10:50;6.10;99.90
33594;DHT22;19920;52.242;20.940;2023-02-18T07:13:16;6.20;99.90
33594;DHT22;19920;52.242;20.940;2023-02-18T07:15:42;6.20;99.90
33594;DHT22;19920;52.242;20.940;2023-02-18T07:18:07;6.20;99.90
33594;DHT22;19920;52.242;20.940;2023-02-18T07:20:33;6.20;99.90
33594;DHT22;19920;52.242;20.940;2023-02-18T07:22:59;6.20;99.90
33594;DHT22;19920;52.242;20.940;2023-02-18T07:25:24;6.20;99.90
33594;DHT22;19920;52.242;20.940;2023-02-18T07:27:51;6.20;99.90
33594;DHT22;19920;52.242;20.940;2023-02-18T07:30:18;6.20;99.90
33594;DHT22;19920;52.242;20.940;2023-02-18T07:32:44;6.20;99.90
33594;DHT22;19920;52.242;20.940;2023-02-18T07:35:10;6.20;99.90
33594;DHT22;19920;52.242;20.940;2023-02-18T07:37:37;6.20;99.90
33594;DHT22;19920;52.242;20.940;2023-02-18T07:40:03;6.30;99.90
33594;DHT22;19920;52.242;20.940;2023-02-18T07:42:29;6.30;99.90
33594;DHT22;19920;52.242;20.940;2023-02-18T07:44:54;6.30;99.90
33594;DHT22;19920;52.242;20.940;2023-02-18T07:47:21;6.40;99.90
33594;DHT22;19920;52.242;20.940;2023-02-18T07:49:47;6.40;99.90
33594;DHT22;19920;52.242;20.940;2023-02-18T07:52:14;6.40;99.90
33594;DHT22;19920;52.242;20.940;2023-02-18T07:54:40;6.40;99.90
33594;DHT22;19920;52.242;20.940;2023-02-18T07:57:06;6.50;99.90
33594;DHT22;19920;52.242;20.940;2023-02-18T07:59:31;6.60;99.90
33594;DHT22;19920;52.242;20.940;2023-02-18T08:01:57;6.60;99.90
33594;DHT22;19920;52.242;20.940;2023-02-18T08:04:23;6.60;99.90
33594;DHT22;19920;52.242;20.940;2023-02-18T08:06:49;6.60;99.90
33594;DHT22;19920;52.242;20.940;2023-02-18T08:09:16;6.60;99.90
33594;DHT22;19920;52.242;20.940;2023-02-18T08:11:42;6.60;99.90
33594;DHT22;19920;52.242;20.940;2023-02-18T08:14:07;6.60;99.90
33594;DHT22;19920;52.242;20.940;2023-02-18T08:16:33;6.60;99.90
33594;DHT22;19920;52.242;20.940;2023-02-18T08:19:00;6.70;99.90
33594;DHT22;19920;52.242;20.940;2023-02-18T08:21:27;6.70;99.90
33594;DHT22;19920;52.242;20.940;2023-02-18T08:23:53;6.70;99.90
33594;DHT22;19920;52.242;20.940;2023-02-18T08:26:19;6.70;99.90
33594;DHT22;19920;52.242;20.940;2023-02-18T08:28:45;6.70;99.90
33594;DHT22;19920;52.242;20.940;2023-02-18T08:31:19;6.80;99.90
33594;DHT22;19920;52.242;20.940;2023-02-18T08:33:46;6.70;99.90
33594;DHT22;19920;52.242;20.940;2023-02-18T08:36:12;6.80;99.90
33594;DHT22;19920;52.242;20.940;2023-02-18T08:38:37;6.90;99.90
33594;DHT22;19920;52.242;20.940;2023-02-18T08:41:05;6.80;99.90
33594;DHT22;19920;52.242;20.940;2023-02-18T08:43:30;6.80;99.90
33594;DHT22;19920;52.242;20.940;2023-02-18T08:45:57;6.90;99.90
33594;DHT22;19920;52.242;20.940;2023-02-18T08:48:23;6.90;99.90
33594;DHT22;19920;52.242;20.940;2023-02-18T08:50:49;6.90;99.90
33594;DHT22;19920;52.242;20.940;2023-02-18T08:53:15;6.90;99.90
33594;DHT22;19920;52.242;20.940;2023-02-18T08:55:41;6.90;99.90
33594;DHT22;19920;52.242;20.940;2023-02-18T08:58:07;7.00;99.90
33594;DHT22;19920;52.242;20.940;2023-02-18T09:00:33;6.90;99.90
33594;DHT22;19920;52.242;20.940;2023-02-18T09:02:59;7.00;99.90
33594;DHT22;19920;52.242;20.940;2023-02-18T09:05:24;7.00;99.90
33594;DHT22;19920;52.242;20.940;2023-02-18T09:07:50;7.10;99.90
33594;DHT22;19920;52.242;20.940;2023-02-18T09:10:15;7.20;99.90
33594;DHT22;19920;52.242;20.940;2023-02-18T09:12:41;7.20;99.90
33594;DHT22;19920;52.242;20.940;2023-02-18T09:15:07;7.20;99.90
33594;DHT22;19920;52.242;20.940;2023-02-18T09:17:33;7.20;99.90
33594;DHT22;19920;52.242;20.940;2023-02-18T09:19:58;7.10;99.90
33594;DHT22;19920;52.242;20.940;2023-02-18T09:22:24;7.10;99.90
33594;DHT22;19920;52.242;20.940;2023-02-18T09:24:50;7.10;99.90
33594;DHT22;19920;52.242;20.940;2023-02-18T09:27:15;7.10;99.90
33594;DHT22;19920;52.242;20.940;2023-02-18T09:29:41;7.10;99.90
33594;DHT22;19920;52.242;20.940;2023-02-18T09:32:07;7.10;99.90
33594;DHT22;19920;52.242;20.940;2023-02-18T09:34:34;7.20;99.90
33594;DHT22;19920;52.242;20.940;2023-02-18T09:37:00;7.10;99.90
33594;DHT22;19920;52.242;20.940;2023-02-18T09:39:26;7.20;99.90
33594;DHT22;19920;52.242;20.940;2023-02-18T09:42:01;7.30;99.90
33594;DHT22;19920;52.242;20.940;2023-02-18T09:44:37;7.30;99.90
33594;DHT22;19920;52.242;20.940;2023-02-18T09:49:37;7.30;99.90
33594;DHT22;19920;52.242;20.940;2023-02-18T09:52:12;7.30;99.90
33594;DHT22;19920;52.242;20.940;2023-02-18T09:54:38;7.40;99.90
33594;DHT22;19920;52.242;20.940;2023-02-18T09:57:05;7.30;99.90
33594;DHT22;19920;52.242;20.940;2023-02-18T09:59:32;7.20;99.90
33594;DHT22;19920;52.242;20.940;2023-02-18T10:01:57;7.10;99.90
33594;DHT22;19920;52.242;20.940;2023-02-18T10:04:42;7.10;99.90
33594;DHT22;19920;52.242;20.940;2023-02-18T10:07:20;7.10;99.90
33594;DHT22;19920;52.242;20.940;2023-02-18T10:09:47;7.10;99.90
33594;DHT22;19920;52.242;20.940;2023-02-18T10:12:16;7.10;99.90
33594;DHT22;19920;52.242;20.940;2023-02-18T10:14:46;7.20;99.90
33594;DHT22;19920;52.242;20.940;2023-02-18T10:17:14;7.20;99.90
33594;DHT22;19920;52.242;20.940;2023-02-18T10:19:41;7.30;99.90
33594;DHT22;19920;52.242;20.940;2023-02-18T10:22:10;7.30;99.90
33594;DHT22;19920;52.242;20.940;2023-02-18T10:24:52;7.40;99.90
33594;DHT22;19920;52.242;20.940;2023-02-18T10:27:25;7.40;99.90
33594;DHT22;19920;52.242;20.940;2023-02-18T10:29:53;7.40;99.90
33594;DHT22;19920;52.242;20.940;2023-02-18T10:34:53;7.50;99.90
33594;DHT22;19920;52.242;20.940;2023-02-18T10:46:36;7.60;99.90
33594;DHT22;19920;52.242;20.940;2023-02-18T10:51:57;7.50;99.90
33594;DHT22;19920;52.242;20.940;2023-02-18T10:54:26;7.40;99.90
33594;DHT22;19920;52.242;20.940;2023-02-18T10:57:18;7.40;99.90
33594;DHT22;19920;52.242;20.940;2023-02-18T11:02:20;7.30;99.90
33594;DHT22;19920;52.242;20.940;2023-02-18T11:04:48;7.30;99.90
33594;DHT22;19920;52.242;20.940;2023-02-18T11:07:19;7.20;99.90
33594;DHT22;19920;52.242;20.940;2023-02-18T11:12:34;7.10;99.90
33594;DHT22;19920;52.242;20.940;2023-02-18T11:17:41;7.20;99.90
33594;DHT22;19920;52.242;20.940;2023-02-18T11:20:30;7.30;99.90
33594;DHT22;19920;52.242;20.940;2023-02-18T11:25:37;7.20;99.90
33594;DHT22;19920;52.242;20.940;2023-02-18T11:28:38;7.30;99.90
33594;DHT22;19920;52.242;20.940;2023-02-18T11:31:05;7.20;99.90
33594;DHT22;19920;52.242;20.940;2023-02-18T11:33:38;7.20;99.90
33594;DHT22;19920;52.242;20.940;2023-02-18T11:38:56;7.20;99.90
33594;DHT22;19920;52.242;20.940;2023-02-18T11:44:33;7.30;99.90
33594;DHT22;19920;52.242;20.940;2023-02-18T11:49:30;7.20;99.90
33594;DHT22;19920;52.242;20.940;2023-02-18T11:52:16;7.40;99.90
33594;DHT22;19920;52.242;20.940;2023-02-18T11:54:42;7.50;99.90
33594;DHT22;19920;52.242;20.940;2023-02-18T11:57:22;7.60;99.90
33594;DHT22;19920;52.242;20.940;2023-02-18T11:59:51;7.60;99.90
33594;DHT22;19920;52.242;20.940;2023-02-18T12:05:13;7.50;99.90
33594;DHT22;19920;52.242;20.940;2023-02-18T12:07:50;7.50;99.90
33594;DHT22;19920;52.242;20.940;2023-02-18T12:10:33;7.60;99.90
33594;DHT22;19920;52.242;20.940;2023-02-18T12:13:31;7.60;99.90
33594;DHT22;19920;52.242;20.940;2023-02-18T12:21:37;7.70;99.90
33594;DHT22;19920;52.242;20.940;2023-02-18T12:27:07;7.70;99.90
33594;DHT22;19920;52.242;20.940;2023-02-18T12:34:58;7.60;99.90
33594;DHT22;19920;52.242;20.940;2023-02-18T12:40:37;7.70;99.90
33594;DHT22;19920;52.242;20.940;2023-02-18T13:00:22;7.60;99.90
33594;DHT22;19920;52.242;20.940;2023-02-18T13:13:20;7.80;99.90
33594;DHT22;19920;52.242;20.940;2023-02-18T13:15:54;7.70;99.90
33594;DHT22;19920;52.242;20.940;2023-02-18T13:18:46;7.60;99.90
33594;DHT22;19920;52.242;20.940;2023-02-18T13:21:15;7.70;99.90
33594;DHT22;19920;52.242;20.940;2023-02-18T13:23:57;7.60;99.90
33594;DHT22;19920;52.242;20.940;2023-02-18T13:26:24;7.60;99.90
33594;DHT22;19920;52.242;20.940;2023-02-18T13:34:36;7.60;99.90
33594;DHT22;19920;52.242;20.940;2023-02-18T13:39:58;7.50;99.90
33594;DHT22;19920;52.242;20.940;2023-02-18T13:58:23;7.40;99.90
33594;DHT22;19920;52.242;20.940;2023-02-18T14:00:54;7.30;99.90
33594;DHT22;19920;52.242;20.940;2023-02-18T14:03:49;7.30;99.90
33594;DHT22;19920;52.242;20.940;2023-02-18T14:06:34;7.40;99.90
33594;DHT22;19920;52.242;20.940;2023-02-18T14:11:57;7.30;99.90
33594;DHT22;19920;52.242;20.940;2023-02-18T14:14:40;7.30;99.90
33594;DHT22;19920;52.242;20.940;2023-02-18T14:17:12;7.30;99.90
33594;DHT22;19920;52.242;20.940;2023-02-18T14:19:38;7.30;99.90
33594;DHT22;19920;52.242;20.940;2023-02-18T14:22:45;7.20;99.90
33594;DHT22;19920;52.242;20.940;2023-02-18T14:27:37;7.20;99.90
33594;DHT22;19920;52.242;20.940;2023-02-18T14:32:32;7.20;99.90
33594;DHT22;19920;52.242;20.940;2023-02-18T14:48:56;7.10;99.90
33594;DHT22;19920;52.242;20.940;2023-02-18T14:51:27;7.10;99.90
33594;DHT22;19920;52.242;20.940;2023-02-18T14:53:53;7.10;99.90
33594;DHT22;19920;52.242;20.940;2023-02-18T14:56:20;7.10;99.90
33594;DHT22;19920;52.242;20.940;2023-02-18T14:59:01;7.10;99.90
33594;DHT22;19920;52.242;20.940;2023-02-18T15:03:55;7.00;99.90
33594;DHT22;19920;52.242;20.940;2023-02-18T15:06:22;7.00;99.90
33594;DHT22;19920;52.242;20.940;2023-02-18T15:08:48;7.00;99.90
33594;DHT22;19920;52.242;20.940;2023-02-18T15:11:14;6.80;99.90
33594;DHT22;19920;52.242;20.940;2023-02-18T15:13:43;6.70;99.90
33594;DHT22;19920;52.242;20.940;2023-02-18T15:16:17;6.60;99.90
33594;DHT22;19920;52.242;20.940;2023-02-18T15:18:48;6.50;99.90
33594;DHT22;19920;52.242;20.940;2023-02-18T15:21:20;6.40;99.90
33594;DHT22;19920;52.242;20.940;2023-02-18T15:23:47;6.30;99.90
33594;DHT22;19920;52.242;20.940;2023-02-18T15:26:14;6.20;99.90
33594;DHT22;19920;52.242;20.940;2023-02-18T15:28:50;6.10;99.90
33594;DHT22;19920;52.242;20.940;2023-02-18T15:31:16;6.00;99.90
33594;DHT22;19920;52.242;20.940;2023-02-18T15:33:43;5.70;99.90
33594;DHT22;19920;52.242;20.940;2023-02-18T15:36:12;5.40;99.90
33594;DHT22;19920;52.242;20.940;2023-02-18T15:38:38;5.30;99.90
33594;DHT22;19920;52.242;20.940;2023-02-18T15:41:14;5.20;99.90
33594;DHT22;19920;52.242;20.940;2023-02-18T15:43:54;5.00;99.90
33594;DHT22;19920;52.242;20.940;2023-02-18T15:46:20;4.80;99.90
33594;DHT22;19920;52.242;20.940;2023-02-18T15:48:48;4.80;99.90
33594;DHT22;19920;52.242;20.940;2023-02-18T15:51:22;4.70;99.90
33594;DHT22;19920;52.242;20.940;2023-02-18T15:53:52;4.70;99.90
33594;DHT22;19920;52.242;20.940;2023-02-18T15:56:39;4.70;99.90
33594;DHT22;19920;52.242;20.940;2023-02-18T15:59:24;4.70;99.90
33594;DHT22;19920;52.242;20.940;2023-02-18T16:02:07;4.70;99.90
33594;DHT22;19920;52.242;20.940;2023-02-18T16:04:39;4.70;99.90
33594;DHT22;19920;52.242;20.940;2023-02-18T16:07:30;4.70;99.90
33594;DHT22;19920;52.242;20.940;2023-02-18T16:10:22;4.70;99.90
33594;DHT22;19920;52.242;20.940;2023-02-18T16:12:56;4.70;99.90
33594;DHT22;19920;52.242;20.940;2023-02-18T16:15:37;4.70;99.90
33594;DHT22;19920;52.242;20.940;2023-02-18T16:18:05;4.60;99.90
33594;DHT22;19920;52.242;20.940;2023-02-18T16:20:36;4.60;99.90
33594;DHT22;19920;52.242;20.940;2023-02-18T16:23:10;4.70;99.90
33594;DHT22;19920;52.242;20.940;2023-02-18T16:25:42;4.70;99.90
33594;DHT22;19920;52.242;20.940;2023-02-18T16:28:15;4.60;99.90
33594;DHT22;19920;52.242;20.940;2023-02-18T16:30:41;4.60;99.90
33594;DHT22;19920;52.242;20.940;2023-02-18T16:33:10;4.70;99.90
33594;DHT22;19920;52.242;20.940;2023-02-18T16:35:36;4.70;99.90
33594;DHT22;19920;52.242;20.940;2023-02-18T16:38:01;4.70;99.90
33594;DHT22;19920;52.242;20.940;2023-02-18T16:43:05;4.70;99.90
33594;DHT22;19920;52.242;20.940;2023-02-18T16:45:55;4.60;99.90
33594;DHT22;19920;52.242;20.940;2023-02-18T16:48:33;4.60;99.90
33594;DHT22;19920;52.242;20.940;2023-02-18T16:51:02;4.60;99.90
33594;DHT22;19920;52.242;20.940;2023-02-18T16:53:29;4.60;99.90
33594;DHT22;19920;52.242;20.940;2023-02-18T16:55:54;4.50;99.90
33594;DHT22;19920;52.242;20.940;2023-02-18T16:58:20;4.50;99.90
33594;DHT22;19920;52.242;20.940;2023-02-18T17:00:46;4.50;99.90
33594;DHT22;19920;52.242;20.940;2023-02-18T17:03:13;4.60;99.90
33594;DHT22;19920;52.242;20.940;2023-02-18T17:05:39;4.60;99.90
33594;DHT22;19920;52.242;20.940;2023-02-18T17:08:20;4.70;99.90
33594;DHT22;19920;52.242;20.940;2023-02-18T17:10:53;4.70;99.90
33594;DHT22;19920;52.242;20.940;2023-02-18T17:13:23;4.60;99.90
33594;DHT22;19920;52.242;20.940;2023-02-18T17:15:51;4.60;99.90
33594;DHT22;19920;52.242;20.940;2023-02-18T17:18:17;4.60;99.90
33594;DHT22;19920;52.242;20.940;2023-02-18T17:20:43;4.60;99.90
33594;DHT22;19920;52.242;20.940;2023-02-18T17:23:20;4.60;99.90
33594;DHT22;19920;52.242;20.940;2023-02-18T17:25:46;4.60;99.90
33594;DHT22;19920;52.242;20.940;2023-02-18T17:28:13;4.60;99.90
33594;DHT22;19920;52.242;20.940;2023-02-18T17:30:44;4.60;99.90
33594;DHT22;19920;52.242;20.940;2023-02-18T17:33:13;4.60;99.90
33594;DHT22;19920;52.242;20.940;2023-02-18T17:35:39;4.60;99.90
33594;DHT22;19920;52.242;20.940;2023-02-18T17:38:17;4.60;99.90
33594;DHT22;19920;52.242;20.940;2023-02-18T17:40:43;4.60;99.90
33594;DHT22;19920;52.242;20.940;2023-02-18T17:43:12;4.70;99.90
33594;DHT22;19920;52.242;20.940;2023-02-18T17:45:43;4.70;99.90
33594;DHT22;19920;52.242;20.940;2023-02-18T17:48:10;4.60;99.90
33594;DHT22;19920;52.242;20.940;2023-02-18T17:50:35;4.70;99.90
33594;DHT22;19920;52.242;20.940;2023-02-18T17:53:01;4.80;99.90
33594;DHT22;19920;52.242;20.940;2023-02-18T17:55:32;4.70;99.90
33594;DHT22;19920;52.242;20.940;2023-02-18T17:57:58;4.80;99.90
33594;DHT22;19920;52.242;20.940;2023-02-18T18:00:26;4.90;99.90
33594;DHT22;19920;52.242;20.940;2023-02-18T18:02:52;4.90;99.90
33594;DHT22;19920;52.242;20.940;2023-02-18T18:05:33;4.80;99.90
33594;DHT22;19920;52.242;20.940;2023-02-18T18:07:59;4.80;99.90
33594;DHT22;19920;52.242;20.940;2023-02-18T18:10:27;4.90;99.90
33594;DHT22;19920;52.242;20.940;2023-02-18T18:13:00;4.80;99.90
33594;DHT22;19920;52.242;20.940;2023-02-18T18:17:57;4.70;99.90
33594;DHT22;19920;52.242;20.940;2023-02-18T18:20:24;4.80;99.90
33594;DHT22;19920;52.242;20.940;2023-02-18T18:22:51;4.70;99.90
33594;DHT22;19920;52.242;20.940;2023-02-18T18:25:32;4.80;99.90
33594;DHT22;19920;52.242;20.940;2023-02-18T18:28:00;4.80;99.90
33594;DHT22;19920;52.242;20.940;2023-02-18T18:30:31;4.80;99.90
33594;DHT22;19920;52.242;20.940;2023-02-18T18:32:57;4.80;99.90
33594;DHT22;19920;52.242;20.940;2023-02-18T18:35:33;4.80;99.90
33594;DHT22;19920;52.242;20.940;2023-02-18T18:38:00;4.90;99.90
33594;DHT22;19920;52.242;20.940;2023-02-18T18:40:28;5.00;99.90